sensor_id;sensor_type;location;lat;lon;timestamp;pressure;altitude;pressure_sealevel;temperature
47484;BMP280;54076;50.322;18.650;2024-01-30T00:00:36;100663.44;;;5.74
47484;BMP280;54076;50.322;18.650;2024-01-30T00:05:37;100659.42;;;5.61
47484;BMP280;54076;50.322;18.650;2024-01-30T00:10:38;100658.69;;;5.62
47484;BMP280;54076;50.322;18.650;2024-01-30T00:15:39;100658.85;;;5.58
47484;BMP280;54076;50.322;18.650;2024-01-30T00:20:40;100661.38;;;5.52
47484;BMP280;54076;50.322;18.650;2024-01-30T00:25:41;100653.69;;;5.57
47484;BMP280;54076;50.322;18.650;2024-01-30T00:30:42;100646.86;;;5.50
47484;BMP280;54076;50.322;18.650;2024-01-30T00:35:43;100646.67;;;5.57
47484;BMP280;54076;50.322;18.650;2024-01-30T00:40:44;100645.81;;;5.59
47484;BMP280;54076;50.322;18.650;2024-01-30T00:45:45;100640.81;;;5.49
47484;BMP280;54076;50.322;18.650;2024-01-30T00:50:46;100642.89;;;5.37
47484;BMP280;54076;50.322;18.650;2024-01-30T00:55:47;100639.15;;;5.39
47484;BMP280;54076;50.322;18.650;2024-01-30T01:00:48;100640.09;;;5.31
47484;BMP280;54076;50.322;18.650;2024-01-30T01:05:49;100638.59;;;5.37
47484;BMP280;54076;50.322;18.650;2024-01-30T01:10:50;100638.79;;;5.34
47484;BMP280;54076;50.322;18.650;2024-01-30T01:15:51;100631.95;;;5.30
47484;BMP280;54076;50.322;18.650;2024-01-30T01:20:52;100625.63;;;5.31
47484;BMP280;54076;50.322;18.650;2024-01-30T01:25:53;100621.55;;;5.12
47484;BMP280;54076;50.322;18.650;2024-01-30T01:30:56;100620.98;;;5.21
47484;BMP280;54076;50.322;18.650;2024-01-30T01:36:00;100615.46;;;5.31
47484;BMP280;54076;50.322;18.650;2024-01-30T01:41:03;100608.13;;;5.31
47484;BMP280;54076;50.322;18.650;2024-01-30T01:46:06;100611.06;;;5.51
47484;BMP280;54076;50.322;18.650;2024-01-30T01:51:08;100607.02;;;5.41
47484;BMP280;54076;50.322;18.650;2024-01-30T01:56:10;100605.03;;;5.42
47484;BMP280;54076;50.322;18.650;2024-01-30T02:01:12;100600.95;;;5.47
47484;BMP280;54076;50.322;18.650;2024-01-30T02:06:14;100600.15;;;5.47
47484;BMP280;54076;50.322;18.650;2024-01-30T02:11:15;100599.67;;;5.51
47484;BMP280;54076;50.322;18.650;2024-01-30T02:16:17;100599.76;;;5.43
47484;BMP280;54076;50.322;18.650;2024-01-30T02:21:19;100593.95;;;5.29
47484;BMP280;54076;50.322;18.650;2024-01-30T02:26:20;100596.21;;;5.47
47484;BMP280;54076;50.322;18.650;2024-01-30T02:31:21;100597.23;;;5.30
47484;BMP280;54076;50.322;18.650;2024-01-30T02:36:22;100595.41;;;5.42
47484;BMP280;54076;50.322;18.650;2024-01-30T02:41:23;100594.91;;;5.38
47484;BMP280;54076;50.322;18.650;2024-01-30T02:46:24;100589.50;;;5.58
47484;BMP280;54076;50.322;18.650;2024-01-30T02:51:25;100589.41;;;5.67
47484;BMP280;54076;50.322;18.650;2024-01-30T02:56:26;100587.30;;;5.75
47484;BMP280;54076;50.322;18.650;2024-01-30T03:01:27;100579.96;;;5.47
47484;BMP280;54076;50.322;18.650;2024-01-30T03:06:28;100585.85;;;5.68
47484;BMP280;54076;50.322;18.650;2024-01-30T03:11:28;100584.75;;;5.62
47484;BMP280;54076;50.322;18.650;2024-01-30T03:16:29;100583.02;;;5.75
47484;BMP280;54076;50.322;18.650;2024-01-30T03:21:30;100587.17;;;5.64
47484;BMP280;54076;50.322;18.650;2024-01-30T03:26:31;100586.77;;;5.60
47484;BMP280;54076;50.322;18.650;2024-01-30T03:31:32;100588.52;;;5.70
47484;BMP280;54076;50.322;18.650;2024-01-30T03:36:33;100586.08;;;5.71
47484;BMP280;54076;50.322;18.650;2024-01-30T03:41:35;100585.14;;;5.76
47484;BMP280;54076;50.322;18.650;2024-01-30T03:46:36;100578.30;;;5.76
47484;BMP280;54076;50.322;18.650;2024-01-30T03:51:37;100579.02;;;5.68
47484;BMP280;54076;50.322;18.650;2024-01-30T03:56:38;100577.80;;;5.68
47484;BMP280;54076;50.322;18.650;2024-01-30T04:01:39;100575.77;;;5.67
47484;BMP280;54076;50.322;18.650;2024-01-30T04:06:40;100581.36;;;5.60
47484;BMP280;54076;50.322;18.650;2024-01-30T04:11:41;100580.27;;;5.63
47484;BMP280;54076;50.322;18.650;2024-01-30T04:16:42;100573.13;;;5.57
47484;BMP280;54076;50.322;18.650;2024-01-30T04:21:43;100564.30;;;5.71
47484;BMP280;54076;50.322;18.650;2024-01-30T04:26:44;100568.96;;;5.83
47484;BMP280;54076;50.322;18.650;2024-01-30T04:31:45;100568.42;;;5.75
47484;BMP280;54076;50.322;18.650;2024-01-30T04:36:46;100567.24;;;5.83
47484;BMP280;54076;50.322;18.650;2024-01-30T04:41:47;100573.06;;;5.78
47484;BMP280;54076;50.322;18.650;2024-01-30T04:46:49;100576.70;;;5.78
47484;BMP280;54076;50.322;18.650;2024-01-30T04:51:50;100578.94;;;5.85
47484;BMP280;54076;50.322;18.650;2024-01-30T04:56:51;100584.60;;;5.94
47484;BMP280;54076;50.322;18.650;2024-01-30T05:01:52;100581.30;;;5.67
47484;BMP280;54076;50.322;18.650;2024-01-30T05:06:53;100582.02;;;5.59
47484;BMP280;54076;50.322;18.650;2024-01-30T05:11:54;100581.75;;;5.82
47484;BMP280;54076;50.322;18.650;2024-01-30T05:16:55;100586.15;;;5.60
47484;BMP280;54076;50.322;18.650;2024-01-30T05:21:56;100591.30;;;5.54
47484;BMP280;54076;50.322;18.650;2024-01-30T05:26:57;100594.17;;;5.65
47484;BMP280;54076;50.322;18.650;2024-01-30T05:31:57;100592.06;;;5.63
47484;BMP280;54076;50.322;18.650;2024-01-30T05:36:59;100590.13;;;5.69
47484;BMP280;54076;50.322;18.650;2024-01-30T05:42:00;100593.08;;;5.49
47484;BMP280;54076;50.322;18.650;2024-01-30T05:47:00;100593.06;;;5.63
47484;BMP280;54076;50.322;18.650;2024-01-30T05:52:03;100595.77;;;5.65
47484;BMP280;54076;50.322;18.650;2024-01-30T05:57:05;100590.98;;;5.73
47484;BMP280;54076;50.322;18.650;2024-01-30T06:02:06;100596.73;;;5.75
47484;BMP280;54076;50.322;18.650;2024-01-30T06:07:07;100596.52;;;5.54
47484;BMP280;54076;50.322;18.650;2024-01-30T06:12:08;100591.61;;;5.47
47484;BMP280;54076;50.322;18.650;2024-01-30T06:17:12;100583.02;;;5.69
47484;BMP280;54076;50.322;18.650;2024-01-30T06:22:13;100587.17;;;5.54
47484;BMP280;54076;50.322;18.650;2024-01-30T06:27:15;100585.98;;;5.53
47484;BMP280;54076;50.322;18.650;2024-01-30T06:32:16;100587.20;;;5.45
47484;BMP280;54076;50.322;18.650;2024-01-30T06:37:17;100591.91;;;5.64
47484;BMP280;54076;50.322;18.650;2024-01-30T06:42:19;100594.31;;;5.63
47484;BMP280;54076;50.322;18.650;2024-01-30T06:47:20;100594.17;;;5.69
47484;BMP280;54076;50.322;18.650;2024-01-30T06:52:21;100592.04;;;5.63
47484;BMP280;54076;50.322;18.650;2024-01-30T06:57:22;100591.30;;;5.50
47484;BMP280;54076;50.322;18.650;2024-01-30T07:02:23;100591.42;;;5.24
47484;BMP280;54076;50.322;18.650;2024-01-30T07:07:24;100595.73;;;5.35
47484;BMP280;54076;50.322;18.650;2024-01-30T07:12:25;100599.94;;;5.30
47484;BMP280;54076;50.322;18.650;2024-01-30T07:17:26;100603.26;;;5.77
47484;BMP280;54076;50.322;18.650;2024-01-30T07:22:28;100602.42;;;5.93
47484;BMP280;54076;50.322;18.650;2024-01-30T07:27:29;100606.23;;;5.61
47484;BMP280;54076;50.322;18.650;2024-01-30T07:32:30;100608.77;;;5.51
47484;BMP280;54076;50.322;18.650;2024-01-30T07:37:31;100615.73;;;5.70
47484;BMP280;54076;50.322;18.650;2024-01-30T07:42:32;100612.33;;;5.58
47484;BMP280;54076;50.322;18.650;2024-01-30T07:47:34;100608.11;;;5.62
47484;BMP280;54076;50.322;18.650;2024-01-30T07:52:35;100605.13;;;5.78
47484;BMP280;54076;50.322;18.650;2024-01-30T07:57:38;100604.38;;;5.84
47484;BMP280;54076;50.322;18.650;2024-01-30T08:02:40;100615.88;;;5.92
47484;BMP280;54076;50.322;18.650;2024-01-30T08:07:41;100613.56;;;6.06
47484;BMP280;54076;50.322;18.650;2024-01-30T08:12:43;100604.58;;;6.23
47484;BMP280;54076;50.322;18.650;2024-01-30T08:17:44;100609.02;;;6.39
47484;BMP280;54076;50.322;18.650;2024-01-30T08:22:46;100606.83;;;6.41
47484;BMP280;54076;50.322;18.650;2024-01-30T08:27:46;100614.25;;;6.64
47484;BMP280;54076;50.322;18.650;2024-01-30T08:32:47;100614.80;;;6.81
47484;BMP280;54076;50.322;18.650;2024-01-30T08:37:48;100612.16;;;6.74
47484;BMP280;54076;50.322;18.650;2024-01-30T08:42:49;100607.52;;;6.78
47484;BMP280;54076;50.322;18.650;2024-01-30T08:47:50;100611.05;;;6.96
47484;BMP280;54076;50.322;18.650;2024-01-30T08:52:51;100612.84;;;7.15
47484;BMP280;54076;50.322;18.650;2024-01-30T08:57:52;100616.04;;;7.22
47484;BMP280;54076;50.322;18.650;2024-01-30T09:02:53;100614.59;;;7.35
47484;BMP280;54076;50.322;18.650;2024-01-30T09:07:55;100612.27;;;7.32
47484;BMP280;54076;50.322;18.650;2024-01-30T09:12:55;100612.83;;;7.59
47484;BMP280;54076;50.322;18.650;2024-01-30T09:17:56;100612.85;;;7.60
47484;BMP280;54076;50.322;18.650;2024-01-30T09:22:57;100608.14;;;7.78
47484;BMP280;54076;50.322;18.650;2024-01-30T09:27:58;100602.71;;;7.69
47484;BMP280;54076;50.322;18.650;2024-01-30T09:32:59;100604.77;;;7.77
47484;BMP280;54076;50.322;18.650;2024-01-30T09:38:01;100606.83;;;7.83
47484;BMP280;54076;50.322;18.650;2024-01-30T09:43:02;100605.33;;;7.90
47484;BMP280;54076;50.322;18.650;2024-01-30T09:48:03;100607.42;;;8.03
47484;BMP280;54076;50.322;18.650;2024-01-30T09:53:05;100598.34;;;8.03
47484;BMP280;54076;50.322;18.650;2024-01-30T09:58:07;100597.73;;;8.23
47484;BMP280;54076;50.322;18.650;2024-01-30T10:03:09;100596.22;;;9.83
47484;BMP280;54076;50.322;18.650;2024-01-30T10:08:10;100595.07;;;9.75
47484;BMP280;54076;50.322;18.650;2024-01-30T10:13:10;100587.96;;;9.16
47484;BMP280;54076;50.322;18.650;2024-01-30T10:18:11;100580.20;;;8.76
47484;BMP280;54076;50.322;18.650;2024-01-30T10:23:12;100579.11;;;8.84
47484;BMP280;54076;50.322;18.650;2024-01-30T10:28:14;100568.98;;;8.89
47484;BMP280;54076;50.322;18.650;2024-01-30T10:33:15;100566.35;;;9.02
47484;BMP280;54076;50.322;18.650;2024-01-30T10:38:18;100557.80;;;9.15
47484;BMP280;54076;50.322;18.650;2024-01-30T10:43:21;100555.54;;;9.36
47484;BMP280;54076;50.322;18.650;2024-01-30T10:48:28;100550.39;;;9.25
47484;BMP280;54076;50.322;18.650;2024-01-30T10:53:30;100550.10;;;9.77
47484;BMP280;54076;50.322;18.650;2024-01-30T10:58:31;100539.36;;;10.19
47484;BMP280;54076;50.322;18.650;2024-01-30T11:03:34;100543.66;;;11.30
47484;BMP280;54076;50.322;18.650;2024-01-30T11:08:36;100541.95;;;12.20
47484;BMP280;54076;50.322;18.650;2024-01-30T11:13:37;100538.45;;;12.87
47484;BMP280;54076;50.322;18.650;2024-01-30T11:18:38;100536.30;;;13.09
47484;BMP280;54076;50.322;18.650;2024-01-30T11:23:39;100534.23;;;13.49
47484;BMP280;54076;50.322;18.650;2024-01-30T11:28:40;100533.88;;;14.02
47484;BMP280;54076;50.322;18.650;2024-01-30T11:33:41;100526.11;;;13.41
47484;BMP280;54076;50.322;18.650;2024-01-30T11:38:42;100523.52;;;13.63
47484;BMP280;54076;50.322;18.650;2024-01-30T11:43:53;100510.16;;;14.29
47484;BMP280;54076;50.322;18.650;2024-01-30T11:48:54;100509.52;;;13.95
47484;BMP280;54076;50.322;18.650;2024-01-30T11:53:55;100496.73;;;14.40
47484;BMP280;54076;50.322;18.650;2024-01-30T11:58:56;100500.48;;;14.30
47484;BMP280;54076;50.322;18.650;2024-01-30T12:03:59;100489.27;;;14.59
47484;BMP280;54076;50.322;18.650;2024-01-30T12:09:02;100485.17;;;14.91
47484;BMP280;54076;50.322;18.650;2024-01-30T12:14:05;100480.33;;;14.88
47484;BMP280;54076;50.322;18.650;2024-01-30T12:19:07;100472.78;;;14.91
47484;BMP280;54076;50.322;18.650;2024-01-30T12:24:07;100466.94;;;14.58
47484;BMP280;54076;50.322;18.650;2024-01-30T12:29:08;100463.20;;;14.22
47484;BMP280;54076;50.322;18.650;2024-01-30T12:34:09;100456.55;;;14.41
47484;BMP280;54076;50.322;18.650;2024-01-30T12:39:11;100446.44;;;14.14
47484;BMP280;54076;50.322;18.650;2024-01-30T12:44:15;100438.86;;;14.63
47484;BMP280;54076;50.322;18.650;2024-01-30T12:49:16;100437.91;;;14.68
47484;BMP280;54076;50.322;18.650;2024-01-30T12:54:16;100429.83;;;15.02
47484;BMP280;54076;50.322;18.650;2024-01-30T12:59:17;100426.61;;;14.86
47484;BMP280;54076;50.322;18.650;2024-01-30T13:04:18;100425.15;;;14.64
47484;BMP280;54076;50.322;18.650;2024-01-30T13:09:19;100426.73;;;14.53
47484;BMP280;54076;50.322;18.650;2024-01-30T13:14:21;100425.98;;;14.27
47484;BMP280;54076;50.322;18.650;2024-01-30T13:19:22;100422.61;;;14.76
47484;BMP280;54076;50.322;18.650;2024-01-30T13:24:22;100414.02;;;14.30
47484;BMP280;54076;50.322;18.650;2024-01-30T13:29:23;100414.70;;;14.48
47484;BMP280;54076;50.322;18.650;2024-01-30T13:34:24;100419.22;;;14.48
47484;BMP280;54076;50.322;18.650;2024-01-30T13:39:25;100415.80;;;14.04
47484;BMP280;54076;50.322;18.650;2024-01-30T13:44:26;100418.77;;;13.47
47484;BMP280;54076;50.322;18.650;2024-01-30T13:49:27;100410.65;;;13.19
47484;BMP280;54076;50.322;18.650;2024-01-30T13:54:28;100411.35;;;12.64
47484;BMP280;54076;50.322;18.650;2024-01-30T13:59:29;100415.73;;;11.68
47484;BMP280;54076;50.322;18.650;2024-01-30T14:04:30;100404.09;;;11.47
47484;BMP280;54076;50.322;18.650;2024-01-30T14:09:31;100401.19;;;11.33
47484;BMP280;54076;50.322;18.650;2024-01-30T14:14:33;100403.05;;;11.07
47484;BMP280;54076;50.322;18.650;2024-01-30T14:19:34;100409.46;;;10.67
47484;BMP280;54076;50.322;18.650;2024-01-30T14:24:36;100404.88;;;10.50
47484;BMP280;54076;50.322;18.650;2024-01-30T14:29:38;100404.31;;;10.43
47484;BMP280;54076;50.322;18.650;2024-01-30T14:34:39;100405.39;;;10.26
47484;BMP280;54076;50.322;18.650;2024-01-30T14:39:39;100392.59;;;10.23
47484;BMP280;54076;50.322;18.650;2024-01-30T14:44:42;100389.72;;;10.32
47484;BMP280;54076;50.322;18.650;2024-01-30T14:49:43;100390.20;;;10.30
47484;BMP280;54076;50.322;18.650;2024-01-30T14:54:44;100384.74;;;10.00
47484;BMP280;54076;50.322;18.650;2024-01-30T14:59:44;100388.25;;;9.75
47484;BMP280;54076;50.322;18.650;2024-01-30T15:04:45;100393.41;;;9.78
47484;BMP280;54076;50.322;18.650;2024-01-30T15:09:46;100383.88;;;9.87
47484;BMP280;54076;50.322;18.650;2024-01-30T15:14:47;100383.95;;;9.64
47484;BMP280;54076;50.322;18.650;2024-01-30T15:19:51;100384.60;;;9.43
47484;BMP280;54076;50.322;18.650;2024-01-30T15:24:52;100391.39;;;9.43
47484;BMP280;54076;50.322;18.650;2024-01-30T15:29:53;100384.85;;;9.44
47484;BMP280;54076;50.322;18.650;2024-01-30T15:34:54;100389.17;;;9.24
47484;BMP280;54076;50.322;18.650;2024-01-30T15:39:57;100388.18;;;9.15
47484;BMP280;54076;50.322;18.650;2024-01-30T15:44:58;100401.36;;;9.03
47484;BMP280;54076;50.322;18.650;2024-01-30T15:49:59;100395.40;;;8.85
47484;BMP280;54076;50.322;18.650;2024-01-30T15:55:00;100401.85;;;8.82
47484;BMP280;54076;50.322;18.650;2024-01-30T16:00:01;100401.80;;;8.75
47484;BMP280;54076;50.322;18.650;2024-01-30T16:05:02;100402.63;;;8.51
47484;BMP280;54076;50.322;18.650;2024-01-30T16:10:04;100404.83;;;8.58
47484;BMP280;54076;50.322;18.650;2024-01-30T16:15:05;100401.20;;;8.45
47484;BMP280;54076;50.322;18.650;2024-01-30T16:20:07;100396.04;;;8.39
47484;BMP280;54076;50.322;18.650;2024-01-30T16:25:10;100399.61;;;8.24
47484;BMP280;54076;50.322;18.650;2024-01-30T16:30:12;100399.12;;;8.27
47484;BMP280;54076;50.322;18.650;2024-01-30T16:35:13;100395.35;;;8.23
47484;BMP280;54076;50.322;18.650;2024-01-30T16:40:14;100393.40;;;8.27
47484;BMP280;54076;50.322;18.650;2024-01-30T16:45:15;100392.71;;;8.08
47484;BMP280;54076;50.322;18.650;2024-01-30T16:50:16;100398.38;;;8.14
47484;BMP280;54076;50.322;18.650;2024-01-30T16:55:17;100393.36;;;8.07
47484;BMP280;54076;50.322;18.650;2024-01-30T17:00:19;100394.83;;;8.02
47484;BMP280;54076;50.322;18.650;2024-01-30T17:05:20;100395.77;;;7.91
47484;BMP280;54076;50.322;18.650;2024-01-30T17:10:21;100389.98;;;7.88
47484;BMP280;54076;50.322;18.650;2024-01-30T17:15:22;100391.79;;;7.94
47484;BMP280;54076;50.322;18.650;2024-01-30T17:20:23;100396.46;;;7.84
47484;BMP280;54076;50.322;18.650;2024-01-30T17:25:23;100393.70;;;7.74
47484;BMP280;54076;50.322;18.650;2024-01-30T17:30:24;100397.75;;;7.81
47484;BMP280;54076;50.322;18.650;2024-01-30T17:35:25;100392.69;;;7.63
47484;BMP280;54076;50.322;18.650;2024-01-30T17:40:26;100384.36;;;7.70
47484;BMP280;54076;50.322;18.650;2024-01-30T17:45:27;100380.99;;;7.65
47484;BMP280;54076;50.322;18.650;2024-01-30T17:50:28;100389.87;;;7.49
47484;BMP280;54076;50.322;18.650;2024-01-30T17:55:29;100395.95;;;7.41
47484;BMP280;54076;50.322;18.650;2024-01-30T18:00:30;100393.73;;;7.57
47484;BMP280;54076;50.322;18.650;2024-01-30T18:05:31;100398.60;;;7.40
47484;BMP280;54076;50.322;18.650;2024-01-30T18:10:32;100395.58;;;7.28
47484;BMP280;54076;50.322;18.650;2024-01-30T18:15:33;100401.59;;;7.49
47484;BMP280;54076;50.322;18.650;2024-01-30T18:20:34;100403.42;;;7.38
47484;BMP280;54076;50.322;18.650;2024-01-30T18:25:35;100402.79;;;7.11
47484;BMP280;54076;50.322;18.650;2024-01-30T18:30:36;100399.36;;;7.25
47484;BMP280;54076;50.322;18.650;2024-01-30T18:35:38;100399.02;;;7.20
47484;BMP280;54076;50.322;18.650;2024-01-30T18:40:39;100400.69;;;7.13
47484;BMP280;54076;50.322;18.650;2024-01-30T18:45:41;100401.27;;;7.06
47484;BMP280;54076;50.322;18.650;2024-01-30T18:50:42;100401.38;;;6.94
47484;BMP280;54076;50.322;18.650;2024-01-30T18:55:44;100400.61;;;7.11
47484;BMP280;54076;50.322;18.650;2024-01-30T19:00:45;100402.75;;;7.01
47484;BMP280;54076;50.322;18.650;2024-01-30T19:05:46;100404.31;;;7.01
47484;BMP280;54076;50.322;18.650;2024-01-30T19:10:47;100398.88;;;6.95
47484;BMP280;54076;50.322;18.650;2024-01-30T19:15:50;100398.04;;;6.89
47484;BMP280;54076;50.322;18.650;2024-01-30T19:20:50;100396.04;;;6.77
47484;BMP280;54076;50.322;18.650;2024-01-30T19:25:51;100396.95;;;6.83
47484;BMP280;54076;50.322;18.650;2024-01-30T19:30:52;100396.90;;;6.88
47484;BMP280;54076;50.322;18.650;2024-01-30T19:35:54;100393.86;;;6.72
47484;BMP280;54076;50.322;18.650;2024-01-30T19:40:55;100395.21;;;6.71
47484;BMP280;54076;50.322;18.650;2024-01-30T19:45:57;100396.81;;;6.63
47484;BMP280;54076;50.322;18.650;2024-01-30T19:51:00;100394.07;;;6.68
47484;BMP280;54076;50.322;18.650;2024-01-30T19:56:01;100394.46;;;6.63
47484;BMP280;54076;50.322;18.650;2024-01-30T20:01:02;100393.40;;;6.66
47484;BMP280;54076;50.322;18.650;2024-01-30T20:06:03;100390.94;;;6.80
47484;BMP280;54076;50.322;18.650;2024-01-30T20:11:14;100392.86;;;6.50
47484;BMP280;54076;50.322;18.650;2024-01-30T20:16:15;100390.42;;;6.50
47484;BMP280;54076;50.322;18.650;2024-01-30T20:21:16;100388.80;;;6.55
47484;BMP280;54076;50.322;18.650;2024-01-30T20:26:17;100388.48;;;6.63
47484;BMP280;54076;50.322;18.650;2024-01-30T20:31:18;100382.98;;;6.56
47484;BMP280;54076;50.322;18.650;2024-01-30T20:36:18;100380.09;;;6.46
47484;BMP280;54076;50.322;18.650;2024-01-30T20:41:19;100371.59;;;6.59
47484;BMP280;54076;50.322;18.650;2024-01-30T20:46:20;100359.73;;;6.65
47484;BMP280;54076;50.322;18.650;2024-01-30T20:51:21;100366.84;;;6.70
47484;BMP280;54076;50.322;18.650;2024-01-30T20:56:22;100356.73;;;6.74
47484;BMP280;54076;50.322;18.650;2024-01-30T21:01:23;100355.48;;;6.55
47484;BMP280;54076;50.322;18.650;2024-01-30T21:06:25;100352.62;;;6.49
47484;BMP280;54076;50.322;18.650;2024-01-30T21:11:26;100350.90;;;6.52
47484;BMP280;54076;50.322;18.650;2024-01-30T21:16:27;100345.14;;;6.44
47484;BMP280;54076;50.322;18.650;2024-01-30T21:21:28;100352.41;;;6.12
47484;BMP280;54076;50.322;18.650;2024-01-30T21:26:29;100365.45;;;6.10
47484;BMP280;54076;50.322;18.650;2024-01-30T21:31:30;100362.30;;;6.21
47484;BMP280;54076;50.322;18.650;2024-01-30T21:36:31;100365.86;;;6.24
47484;BMP280;54076;50.322;18.650;2024-01-30T21:41:32;100367.02;;;6.12
47484;BMP280;54076;50.322;18.650;2024-01-30T21:46:33;100365.45;;;6.17
47484;BMP280;54076;50.322;18.650;2024-01-30T21:51:34;100360.51;;;6.13
47484;BMP280;54076;50.322;18.650;2024-01-30T21:56:35;100364.73;;;6.15
47484;BMP280;54076;50.322;18.650;2024-01-30T22:01:38;100373.06;;;6.06
47484;BMP280;54076;50.322;18.650;2024-01-30T22:06:39;100371.13;;;5.99
47484;BMP280;54076;50.322;18.650;2024-01-30T22:11:40;100371.31;;;6.00
47484;BMP280;54076;50.322;18.650;2024-01-30T22:16:41;100374.86;;;6.02
47484;BMP280;54076;50.322;18.650;2024-01-30T22:21:41;100368.23;;;5.94
47484;BMP280;54076;50.322;18.650;2024-01-30T22:26:43;100370.01;;;5.89
47484;BMP280;54076;50.322;18.650;2024-01-30T22:31:43;100370.27;;;6.11
47484;BMP280;54076;50.322;18.650;2024-01-30T22:36:44;100375.61;;;5.99
47484;BMP280;54076;50.322;18.650;2024-01-30T22:41:45;100364.10;;;5.86
47484;BMP280;54076;50.322;18.650;2024-01-30T22:46:47;100369.67;;;5.96
47484;BMP280;54076;50.322;18.650;2024-01-30T22:51:47;100374.54;;;6.02
47484;BMP280;54076;50.322;18.650;2024-01-30T22:56:49;100378.02;;;6.14
47484;BMP280;54076;50.322;18.650;2024-01-30T23:01:50;100376.27;;;6.07
47484;BMP280;54076;50.322;18.650;2024-01-30T23:06:52;100380.65;;;6.03
47484;BMP280;54076;50.322;18.650;2024-01-30T23:11:52;100374.13;;;5.83
47484;BMP280;54076;50.322;18.650;2024-01-30T23:16:54;100370.23;;;5.86
47484;BMP280;54076;50.322;18.650;2024-01-30T23:21:55;100363.48;;;5.70
47484;BMP280;54076;50.322;18.650;2024-01-30T23:26:56;100367.93;;;5.82
47484;BMP280;54076;50.322;18.650;2024-01-30T23:31:57;100369.27;;;5.66
47484;BMP280;54076;50.322;18.650;2024-01-30T23:36:58;100367.71;;;5.68
47484;BMP280;54076;50.322;18.650;2024-01-30T23:41:59;100366.95;;;5.63
47484;BMP280;54076;50.322;18.650;2024-01-30T23:47:00;100369.72;;;5.55
47484;BMP280;54076;50.322;18.650;2024-01-30T23:52:02;100373.77;;;5.54
47484;BMP280;54076;50.322;18.650;2024-01-30T23:57:03;100375.47;;;5.73
